createdAt,value
2023-02-06T00:02:23.234Z,5.45
2023-02-06T00:07:54.875Z,5.38
2023-02-06T00:13:26.352Z,5.57
2023-02-06T00:18:58.574Z,5.25
2023-02-06T00:24:29.512Z,5.57
2023-02-06T00:30:00.427Z,4.82
2023-02-06T00:35:31.574Z,5.22
2023-02-06T00:41:02.976Z,5.75
2023-02-06T00:46:34.916Z,5.45
2023-02-06T00:52:05.949Z,4.88
2023-02-06T00:57:37.007Z,5.38
2023-02-06T01:03:08.419Z,5.05
2023-02-06T01:08:40.313Z,4.88
2023-02-06T01:14:11.387Z,5.15
2023-02-06T01:19:42.648Z,5.40
2023-02-06T01:25:14.817Z,4.28
2023-02-06T01:30:46.302Z,4.90
2023-02-06T01:36:19.015Z,4.93
2023-02-06T01:41:51.250Z,4.93
2023-02-06T01:47:22.442Z,4.45
2023-02-06T01:52:53.870Z,4.50
2023-02-06T01:58:29.937Z,5.05
2023-02-06T02:04:09.421Z,4.90
2023-02-06T02:09:40.493Z,5.20
2023-02-06T02:15:12.087Z,5.03
2023-02-06T02:21:12.275Z,4.53
2023-02-06T02:27:07.824Z,4.40
2023-02-06T02:32:45.181Z,4.32
2023-02-06T02:38:33.345Z,5.25
2023-02-06T02:44:09.187Z,5.20
2023-02-06T02:49:41.886Z,4.50
2023-02-06T03:01:03.030Z,4.65
2023-02-06T03:06:50.171Z,4.95
2023-02-06T03:12:44.877Z,5.03
2023-02-06T03:18:24.344Z,4.90
2023-02-06T03:23:59.680Z,4.10
2023-02-06T03:29:32.701Z,4.30
2023-02-06T03:35:17.586Z,5.68
2023-02-06T03:40:49.300Z,4.30
2023-02-06T03:46:20.528Z,4.78
2023-02-06T03:52:03.462Z,4.53
2023-02-06T03:57:35.956Z,4.40
2023-02-06T04:03:07.984Z,4.65
2023-02-06T04:08:39.494Z,5.07
2023-02-06T04:14:10.334Z,4.82
2023-02-06T04:19:42.320Z,5.30
2023-02-06T04:25:13.901Z,4.65
2023-02-06T04:30:45.324Z,4.65
2023-02-06T04:36:16.482Z,4.30
2023-02-06T04:41:47.528Z,5.30
2023-02-06T04:47:18.929Z,4.28
2023-02-06T04:52:49.942Z,4.68
2023-02-06T04:58:21.377Z,4.90
2023-02-06T05:03:52.430Z,5.10
2023-02-06T05:09:23.445Z,5.32
2023-02-06T05:14:55.691Z,4.72
2023-02-06T05:20:51.547Z,5.35
2023-02-06T05:26:23.080Z,5.18
2023-02-06T05:31:54.520Z,5.10
2023-02-06T05:37:25.580Z,4.63
2023-02-06T05:42:58.422Z,5.35
2023-02-06T05:48:30.766Z,4.35
2023-02-06T05:54:01.834Z,4.72
2023-02-06T05:59:33.057Z,4.57
2023-02-06T06:05:04.495Z,4.55
2023-02-06T06:10:36.106Z,5.18
2023-02-06T06:16:07.406Z,4.88
2023-02-06T06:21:38.589Z,5.07
2023-02-06T06:27:11.036Z,5.20
2023-02-06T06:32:42.312Z,5.25
2023-02-06T06:38:13.781Z,4.78
2023-02-06T06:43:45.233Z,4.60
2023-02-06T06:49:16.543Z,5.22
2023-02-06T06:54:47.586Z,4.80
2023-02-06T07:00:18.879Z,4.60
2023-02-06T07:05:51.268Z,5.60
2023-02-06T07:11:26.306Z,5.45
2023-02-06T07:16:57.958Z,4.77
2023-02-06T07:22:29.596Z,5.38
2023-02-06T07:28:01.434Z,5.10
2023-02-06T07:33:33.291Z,5.00
2023-02-06T07:39:04.915Z,5.28
2023-02-06T07:44:36.058Z,5.70
2023-02-06T07:50:07.388Z,4.97
2023-02-06T07:55:38.855Z,4.75
2023-02-06T08:01:11.096Z,4.95
2023-02-06T08:06:43.549Z,5.10
2023-02-06T08:12:14.647Z,4.65
2023-02-06T08:17:45.530Z,5.35
2023-02-06T08:23:16.973Z,4.60
2023-02-06T08:28:49.558Z,5.00
2023-02-06T08:34:20.825Z,5.05
2023-02-06T08:39:51.774Z,4.47
2023-02-06T08:45:23.173Z,5.30
2023-02-06T08:51:08.604Z,5.28
2023-02-06T08:56:39.888Z,4.95
2023-02-06T09:02:12.201Z,5.05
2023-02-06T09:07:43.609Z,5.68
2023-02-06T09:13:15.667Z,4.63
2023-02-06T09:18:47.986Z,4.95
2023-02-06T09:24:19.240Z,5.18
2023-02-06T09:29:50.796Z,5.20
2023-02-06T09:35:21.830Z,5.35
2023-02-06T09:40:55.334Z,5.03
2023-02-06T09:46:31.572Z,5.53
2023-02-06T09:52:44.290Z,5.55
2023-02-06T09:58:33.887Z,4.80
2023-02-06T10:04:31.853Z,4.80
2023-02-06T10:10:07.149Z,5.10
2023-02-06T10:15:46.512Z,5.00
2023-02-06T10:21:41.513Z,5.75
2023-02-06T10:32:51.698Z,4.85
2023-02-06T10:38:43.588Z,5.25
2023-02-06T10:44:26.879Z,5.40
2023-02-06T10:50:04.939Z,5.68
2023-02-06T10:55:50.434Z,5.57
2023-02-06T11:01:26.493Z,4.80
2023-02-06T11:07:02.379Z,5.82
2023-02-06T11:12:38.506Z,5.65
2023-02-06T11:18:15.074Z,5.38
2023-02-06T11:23:48.120Z,5.63
2023-02-06T11:29:26.085Z,5.05
2023-02-06T11:34:59.636Z,5.40
2023-02-06T11:40:31.011Z,5.28
2023-02-06T11:46:25.608Z,5.95
2023-02-06T11:52:00.146Z,5.53
2023-02-06T11:57:34.123Z,5.65
2023-02-06T12:03:25.102Z,5.95
2023-02-06T12:08:59.686Z,5.43
2023-02-06T12:14:49.946Z,4.93
2023-02-06T12:20:30.208Z,5.35
2023-02-06T12:26:05.660Z,6.03
2023-02-06T12:31:50.773Z,5.43
2023-02-06T12:37:22.450Z,5.40
2023-02-06T12:43:04.345Z,5.20
2023-02-06T12:48:44.493Z,4.97
2023-02-06T12:54:21.549Z,4.90
2023-02-06T13:00:23.811Z,5.43
2023-02-06T13:06:02.061Z,5.10
2023-02-06T13:11:40.719Z,4.47
2023-02-06T13:17:18.686Z,4.93
2023-02-06T13:22:55.217Z,4.55
2023-02-06T13:28:26.587Z,5.18
2023-02-06T13:34:00.592Z,4.40
2023-02-06T13:45:05.312Z,4.28
2023-02-06T13:50:51.304Z,4.35
2023-02-06T13:56:52.365Z,4.75
2023-02-06T14:02:36.111Z,4.13
2023-02-06T14:08:13.723Z,3.95
2023-02-06T14:14:17.406Z,3.72
2023-02-06T14:19:59.631Z,3.28
2023-02-06T14:25:55.349Z,4.25
2023-02-06T14:32:20.844Z,3.85
2023-02-06T14:38:10.838Z,4.53
2023-02-06T14:43:44.200Z,3.75
2023-02-06T14:54:50.625Z,3.97
2023-02-06T15:00:22.364Z,3.80
2023-02-06T15:06:10.262Z,4.10
2023-02-06T15:11:42.214Z,4.30
2023-02-06T15:17:20.288Z,4.40
2023-02-06T15:22:52.445Z,4.00
2023-02-06T15:28:28.166Z,4.22
2023-02-06T15:34:01.039Z,4.40
2023-02-06T15:39:32.957Z,3.90
2023-02-06T15:45:06.050Z,4.50
2023-02-06T15:50:37.722Z,4.03
2023-02-06T15:56:28.747Z,4.07
2023-02-06T16:02:00.408Z,3.80
2023-02-06T16:07:35.955Z,4.00
2023-02-06T16:13:14.871Z,4.13
2023-02-06T16:18:46.750Z,3.50
2023-02-06T16:24:28.926Z,4.03
2023-02-06T16:29:59.936Z,4.13
2023-02-06T16:35:31.123Z,4.15
2023-02-06T16:41:02.554Z,4.13
2023-02-06T16:46:34.185Z,4.35
2023-02-06T16:52:05.995Z,4.20
2023-02-06T16:57:41.495Z,4.10
2023-02-06T17:03:14.301Z,3.92
2023-02-06T17:08:45.820Z,4.70
2023-02-06T17:14:16.836Z,4.70
2023-02-06T17:19:49.323Z,4.28
2023-02-06T17:25:20.582Z,4.68
2023-02-06T17:30:52.292Z,5.10
2023-02-06T17:36:29.692Z,4.72
2023-02-06T17:42:01.051Z,4.18
2023-02-06T17:47:32.190Z,4.95
2023-02-06T17:53:06.039Z,4.55
2023-02-06T18:04:13.042Z,4.70
2023-02-06T18:09:44.582Z,4.70
2023-02-06T18:15:16.553Z,5.20
2023-02-06T18:20:47.520Z,4.60
2023-02-06T18:26:19.240Z,5.30
2023-02-06T18:31:50.592Z,4.82
2023-02-06T18:37:22.161Z,4.68
2023-02-06T18:42:54.709Z,4.97
2023-02-06T18:48:25.891Z,5.43
2023-02-06T18:53:58.614Z,5.50
2023-02-06T18:59:29.706Z,5.18
2023-02-06T19:05:00.850Z,5.35
2023-02-06T19:10:32.073Z,5.60
2023-02-06T19:16:12.739Z,5.88
2023-02-06T19:21:44.306Z,5.45
2023-02-06T19:27:15.765Z,5.82
2023-02-06T19:32:49.132Z,6.78
2023-02-06T19:38:20.365Z,6.93
2023-02-06T19:43:53.906Z,6.53
2023-02-06T19:49:26.054Z,6.33
2023-02-06T19:54:57.178Z,6.38
2023-02-06T20:00:28.626Z,5.80
2023-02-06T20:06:08.113Z,6.32
2023-02-06T20:11:39.840Z,6.10
2023-02-06T20:17:11.271Z,6.43
2023-02-06T20:22:42.268Z,6.88
2023-02-06T20:28:13.624Z,6.35
2023-02-06T20:33:45.551Z,7.20
2023-02-06T20:39:17.000Z,6.97
2023-02-06T20:44:50.456Z,7.85
2023-02-06T20:50:21.813Z,6.97
2023-02-06T20:55:53.317Z,7.82
2023-02-06T21:01:26.277Z,7.75
2023-02-06T21:06:57.813Z,7.97
2023-02-06T21:12:28.863Z,7.45
2023-02-06T21:17:59.797Z,7.60
2023-02-06T21:23:30.821Z,7.95
2023-02-06T21:29:02.796Z,8.23
2023-02-06T21:34:34.129Z,7.63
2023-02-06T21:40:06.084Z,8.43
2023-02-06T21:45:40.013Z,9.73
2023-02-06T21:56:45.973Z,8.02
2023-02-06T22:02:17.157Z,8.95
2023-02-06T22:07:48.255Z,7.80
2023-02-06T22:13:19.296Z,9.23
2023-02-06T22:18:51.099Z,9.63
2023-02-06T22:24:22.549Z,8.90
2023-02-06T22:29:53.672Z,10.18
2023-02-06T22:35:25.493Z,9.57
2023-02-06T22:41:04.948Z,11.27
2023-02-06T22:46:38.218Z,10.25
2023-02-06T22:52:28.189Z,10.13
2023-02-06T22:57:59.419Z,10.88
2023-02-06T23:03:30.784Z,10.90
2023-02-06T23:09:04.289Z,10.77
2023-02-06T23:14:35.381Z,12.43
2023-02-06T23:20:09.438Z,11.07
2023-02-06T23:25:44.796Z,11.30
2023-02-06T23:31:16.588Z,11.48
2023-02-06T23:36:47.638Z,11.43
2023-02-06T23:42:18.743Z,10.38
2023-02-06T23:47:51.246Z,10.30
2023-02-06T23:53:22.641Z,11.90
2023-02-06T23:58:54.994Z,11.38
